Time;durP1;ratioP1;P1;durP2;ratioP2;P2;SDS_P1;SDS_P2;PMS_P1;PMS_P2;Temp;Humidity;BMP_temperature;BMP_pressure;BME280_temperature;BME280_humidity;BME280_pressure;Samples;Min_cycle;Max_cycle;Signal;HPM_P1;HPM_P2
2023/03/03 00:00:39;;;;;;;37.55;18.67;;;;;;;;;;5082289;28;20545;-57
2023/03/03 00:03:07;;;;;;;34.10;18.98;;;;;;;;;;5083437;28;20049;-57
2023/03/03 00:05:33;;;;;;;38.47;17.92;;;;;;;;;;5083017;28;20117;-57
2023/03/03 00:07:59;;;;;;;37.83;18.85;;;;;;;;;;5082267;28;20056;-57
2023/03/03 00:10:25;;;;;;;36.60;18.67;;;;;;;;;;5080171;28;20075;-57
2023/03/03 00:12:51;;;;;;;29.33;15.73;;;;;;;;;;5080968;28;20106;-57
2023/03/03 00:15:22;;;;;;;34.55;16.38;;;;;;;;;;5082955;28;20544;-57
2023/03/03 00:17:48;;;;;;;31.65;14.20;;;;;;;;;;5083223;28;20047;-57
2023/03/03 00:20:35;;;;;;;31.42;17.13;;;;;;;;;;5077328;28;20071;-58
2023/03/03 00:23:28;;;;;;;34.10;17.83;;;;;;;;;;5071224;28;20443;-57
2023/03/03 00:25:54;;;;;;;35.10;16.42;;;;;;;;;;5075753;28;20053;-57
2023/03/03 00:28:31;;;;;;;35.88;17.45;;;;;;;;;;5078792;28;20115;-57
2023/03/03 00:30:59;;;;;;;39.10;16.60;;;;;;;;;;5074804;28;20199;-57
2023/03/03 00:33:31;;;;;;;39.88;18.77;;;;;;;;;;5081263;28;20047;-57
2023/03/03 00:36:06;;;;;;;40.17;18.13;;;;;;;;;;5075229;28;20040;-57
2023/03/03 00:38:35;;;;;;;29.58;16.10;;;;;;;;;;5079594;28;20151;-57
2023/03/03 00:41:01;;;;;;;37.88;17.52;;;;;;;;;;5069764;28;20060;-57
2023/03/03 00:43:31;;;;;;;33.22;18.42;;;;;;;;;;5077788;28;20095;-57
2023/03/03 00:45:57;;;;;;;34.35;16.38;;;;;;;;;;5074619;28;20040;-57
2023/03/03 00:48:31;;;;;;;32.70;17.65;;;;;;;;;;5074402;28;20047;-57
2023/03/03 00:50:58;;;;;;;35.28;16.23;;;;;;;;;;5077039;28;20545;-57
2023/03/03 00:53:26;;;;;;;34.05;16.77;;;;;;;;;;5078123;28;20119;-57
2023/03/03 00:55:52;;;;;;;37.28;17.88;;;;;;;;;;5079092;28;20041;-57
2023/03/03 00:58:20;;;;;;;33.80;16.15;;;;;;;;;;5078658;28;20036;-57
2023/03/03 01:00:47;;;;;;;36.65;17.55;;;;;;;;;;5079659;28;20609;-57
2023/03/03 01:03:14;;;;;;;33.28;14.20;;;;;;;;;;5073498;28;20160;-57
2023/03/03 01:05:40;;;;;;;33.20;15.68;;;;;;;;;;5073595;28;20040;-57
2023/03/03 01:08:06;;;;;;;33.40;19.50;;;;;;;;;;5074925;28;20041;-58
2023/03/03 01:10:35;;;;;;;38.55;18.25;;;;;;;;;;5075553;28;20047;-57
2023/03/03 01:13:02;;;;;;;35.13;18.83;;;;;;;;;;5079338;27;20838;-57
2023/03/03 01:15:28;;;;;;;40.97;17.63;;;;;;;;;;5080529;28;20525;-57
2023/03/03 01:17:55;;;;;;;36.60;17.38;;;;;;;;;;5081848;28;20098;-57
2023/03/03 01:20:21;;;;;;;29.83;15.10;;;;;;;;;;5072549;28;20040;-57
2023/03/03 01:22:47;;;;;;;32.80;16.88;;;;;;;;;;5076751;28;20048;-57
2023/03/03 01:25:13;;;;;;;37.50;17.23;;;;;;;;;;5079229;28;20544;-57
2023/03/03 01:27:39;;;;;;;37.85;17.95;;;;;;;;;;5080064;28;20163;-57
2023/03/03 01:30:06;;;;;;;35.55;18.17;;;;;;;;;;5077518;28;20130;-57
2023/03/03 01:32:32;;;;;;;39.03;18.08;;;;;;;;;;5075545;28;20616;-58
2023/03/03 01:34:58;;;;;;;40.03;18.83;;;;;;;;;;5073765;28;20043;-58
2023/03/03 01:37:25;;;;;;;41.78;17.75;;;;;;;;;;5078413;28;20028;-58
2023/03/03 01:39:51;;;;;;;42.90;19.25;;;;;;;;;;5078961;28;20834;-57
2023/03/03 01:42:18;;;;;;;26.65;12.98;;;;;;;;;;5075657;28;20123;-57
2023/03/03 01:44:44;;;;;;;37.90;19.35;;;;;;;;;;5073632;28;20047;-57
2023/03/03 01:47:11;;;;;;;17.65;11.27;;;;;;;;;;5073999;28;20552;-57
2023/03/03 01:49:57;;;;;;;36.50;18.48;;;;;;;;;;5080759;28;20516;-57
2023/03/03 01:52:35;;;;;;;29.13;14.38;;;;;;;;;;5078496;28;20039;-57
2023/03/03 01:55:08;;;;;;;37.05;18.10;;;;;;;;;;5078136;28;20915;-57
2023/03/03 01:57:36;;;;;;;30.15;14.27;;;;;;;;;;5077513;28;20492;-57
2023/03/03 02:00:04;;;;;;;29.70;15.65;;;;;;;;;;5078073;28;20036;-57
2023/03/03 02:02:31;;;;;;;35.55;17.65;;;;;;;;;;5080016;28;20044;-57
2023/03/03 02:04:57;;;;;;;36.95;17.20;;;;;;;;;;5080162;28;20041;-57
2023/03/03 02:07:25;;;;;;;38.63;19.38;;;;;;;;;;5079772;28;20052;-57
2023/03/03 02:09:54;;;;;;;35.25;15.20;;;;;;;;;;5078805;28;22254;-57
2023/03/03 02:12:22;;;;;;;40.15;17.65;;;;;;;;;;5079530;28;20044;-57
2023/03/03 02:14:48;;;;;;;30.13;14.90;;;;;;;;;;5080539;28;20145;-57
2023/03/03 02:17:15;;;;;;;32.83;16.90;;;;;;;;;;5078250;28;20033;-58
2023/03/03 02:19:44;;;;;;;38.25;19.73;;;;;;;;;;5079466;28;20052;-58
2023/03/03 02:22:10;;;;;;;42.95;19.30;;;;;;;;;;5076827;28;20033;-57
2023/03/03 02:24:46;;;;;;;41.22;17.20;;;;;;;;;;5074817;28;20044;-57
2023/03/03 02:27:13;;;;;;;36.58;17.80;;;;;;;;;;5075682;28;20113;-57
2023/03/03 02:29:39;;;;;;;26.98;16.40;;;;;;;;;;5079946;28;20690;-57
2023/03/03 02:32:05;;;;;;;36.20;18.10;;;;;;;;;;5075457;28;20040;-57
2023/03/03 02:34:31;;;;;;;23.80;12.38;;;;;;;;;;5077738;28;20047;-57
2023/03/03 02:36:57;;;;;;;32.17;17.50;;;;;;;;;;5077397;28;20047;-57
2023/03/03 02:39:25;;;;;;;41.22;17.23;;;;;;;;;;5076142;28;20048;-57
2023/03/03 02:41:55;;;;;;;37.92;17.25;;;;;;;;;;5072719;28;20044;-57
2023/03/03 02:44:23;;;;;;;30.67;17.02;;;;;;;;;;5079210;28;20417;-57
2023/03/03 02:46:53;;;;;;;34.17;16.10;;;;;;;;;;5074042;28;20097;-57
2023/03/03 02:49:23;;;;;;;35.90;15.75;;;;;;;;;;5079834;28;20051;-57
2023/03/03 02:51:50;;;;;;;38.25;17.02;;;;;;;;;;5078914;28;20044;-58
2023/03/03 02:54:17;;;;;;;41.42;20.27;;;;;;;;;;5081888;28;20043;-58
2023/03/03 02:56:44;;;;;;;34.28;15.25;;;;;;;;;;5076876;28;20144;-58
2023/03/03 02:59:10;;;;;;;35.40;18.63;;;;;;;;;;5081533;28;20044;-58
2023/03/03 03:01:36;;;;;;;40.10;17.23;;;;;;;;;;5078931;28;20126;-57
2023/03/03 03:04:05;;;;;;;42.83;20.15;;;;;;;;;;5079821;28;20052;-58
2023/03/03 03:06:31;;;;;;;39.55;18.33;;;;;;;;;;5075376;28;20123;-57
2023/03/03 03:08:57;;;;;;;41.80;19.15;;;;;;;;;;5082181;27;20085;-57
2023/03/03 03:11:23;;;;;;;44.65;20.27;;;;;;;;;;5078074;27;20057;-57
2023/03/03 03:13:50;;;;;;;42.70;19.30;;;;;;;;;;5079759;28;20090;-57
2023/03/03 03:16:17;;;;;;;39.30;17.15;;;;;;;;;;5080555;28;20040;-57
2023/03/03 03:18:43;;;;;;;38.08;17.80;;;;;;;;;;5085051;28;21019;-57
2023/03/03 03:21:09;;;;;;;39.35;19.33;;;;;;;;;;5079100;28;20040;-57
2023/03/03 03:23:36;;;;;;;40.15;19.77;;;;;;;;;;5081256;28;20082;-57
2023/03/03 03:26:02;;;;;;;35.10;17.30;;;;;;;;;;5079938;28;20044;-57
2023/03/03 03:28:28;;;;;;;41.00;19.55;;;;;;;;;;5084061;28;20036;-57
2023/03/03 03:30:54;;;;;;;44.30;19.77;;;;;;;;;;5078155;28;20067;-57
2023/03/03 03:33:20;;;;;;;41.75;18.30;;;;;;;;;;5082248;27;20534;-57
2023/03/03 03:35:47;;;;;;;31.90;14.90;;;;;;;;;;5076905;28;20044;-57
2023/03/03 03:38:13;;;;;;;37.65;16.42;;;;;;;;;;5081311;28;20047;-57
2023/03/03 03:40:40;;;;;;;48.42;19.60;;;;;;;;;;5076945;28;20501;-59
2023/03/03 03:43:06;;;;;;;41.88;19.70;;;;;;;;;;5076127;28;20175;-57
2023/03/03 03:45:32;;;;;;;39.20;16.95;;;;;;;;;;5079964;27;21059;-57
2023/03/03 03:47:58;;;;;;;45.83;20.33;;;;;;;;;;5080635;28;20671;-57
2023/03/03 03:50:24;;;;;;;29.27;12.52;;;;;;;;;;5076845;27;20044;-57
2023/03/03 03:52:50;;;;;;;40.50;18.60;;;;;;;;;;5082135;27;20103;-57
2023/03/03 03:55:16;;;;;;;28.85;13.10;;;;;;;;;;5077711;28;20595;-57
2023/03/03 03:57:43;;;;;;;32.20;17.92;;;;;;;;;;5078575;28;20305;-57
2023/03/03 04:00:10;;;;;;;33.45;18.75;;;;;;;;;;5084155;28;20059;-57
2023/03/03 04:02:36;;;;;;;45.47;19.55;;;;;;;;;;5078001;28;20505;-57
2023/03/03 04:05:03;;;;;;;38.03;17.55;;;;;;;;;;5079181;27;20041;-57
2023/03/03 04:07:29;;;;;;;38.78;18.13;;;;;;;;;;5081092;28;20174;-57
2023/03/03 04:09:55;;;;;;;46.85;18.80;;;;;;;;;;5081179;28;20079;-57
2023/03/03 04:12:21;;;;;;;40.72;18.63;;;;;;;;;;5079815;28;20071;-57
2023/03/03 04:14:47;;;;;;;45.47;20.45;;;;;;;;;;5083340;28;20102;-57
2023/03/03 04:17:17;;;;;;;36.03;16.23;;;;;;;;;;5082263;28;20048;-57
2023/03/03 04:19:43;;;;;;;24.52;12.55;;;;;;;;;;5080433;28;20637;-57
2023/03/03 04:22:09;;;;;;;27.33;13.35;;;;;;;;;;5080733;28;20526;-57
2023/03/03 04:24:35;;;;;;;24.60;11.85;;;;;;;;;;5080701;28;20083;-57
2023/03/03 04:27:01;;;;;;;42.08;17.70;;;;;;;;;;5077102;28;20499;-57
2023/03/03 04:29:27;;;;;;;47.45;21.45;;;;;;;;;;5079524;28;20171;-57
2023/03/03 04:31:54;;;;;;;38.80;17.27;;;;;;;;;;5079028;28;20530;-57
2023/03/03 04:34:20;;;;;;;44.97;20.00;;;;;;;;;;5078777;28;20052;-57
2023/03/03 04:36:46;;;;;;;42.03;18.05;;;;;;;;;;5082175;28;20044;-57
2023/03/03 04:39:12;;;;;;;22.70;12.73;;;;;;;;;;5079935;28;20044;-57
2023/03/03 04:41:38;;;;;;;43.80;18.38;;;;;;;;;;5078318;28;20166;-58
2023/03/03 04:44:04;;;;;;;42.85;19.27;;;;;;;;;;5078983;28;20037;-57
2023/03/03 04:46:30;;;;;;;48.35;19.13;;;;;;;;;;5075854;28;20047;-57
2023/03/03 04:48:56;;;;;;;42.10;19.25;;;;;;;;;;5077249;28;20050;-57
2023/03/03 04:51:22;;;;;;;24.05;14.98;;;;;;;;;;5073353;27;20040;-57
2023/03/03 04:53:49;;;;;;;44.40;21.02;;;;;;;;;;5069394;28;20048;-57
2023/03/03 04:56:15;;;;;;;50.10;21.08;;;;;;;;;;5068639;28;20036;-57
2023/03/03 04:58:41;;;;;;;35.40;16.42;;;;;;;;;;5069800;28;20498;-57
2023/03/03 05:01:07;;;;;;;31.63;14.80;;;;;;;;;;5070864;28;20526;-57
2023/03/03 05:03:33;;;;;;;47.80;19.45;;;;;;;;;;5070929;28;20044;-57
2023/03/03 05:05:59;;;;;;;40.25;19.17;;;;;;;;;;5072369;28;20839;-57
2023/03/03 05:08:25;;;;;;;41.15;19.60;;;;;;;;;;5075811;28;20512;-57
2023/03/03 05:10:52;;;;;;;49.33;20.70;;;;;;;;;;5075304;28;20134;-57
2023/03/03 05:13:18;;;;;;;42.83;16.08;;;;;;;;;;5074013;28;20050;-57
2023/03/03 05:15:49;;;;;;;49.30;19.77;;;;;;;;;;5076610;28;20062;-57
2023/03/03 05:18:15;;;;;;;39.58;19.48;;;;;;;;;;5075840;28;20127;-57
2023/03/03 05:20:41;;;;;;;35.53;16.58;;;;;;;;;;5078117;28;20037;-57
2023/03/03 05:23:07;;;;;;;28.60;14.43;;;;;;;;;;5077858;28;20048;-57
2023/03/03 05:25:33;;;;;;;46.65;20.17;;;;;;;;;;5072669;28;20742;-57
2023/03/03 05:28:00;;;;;;;31.40;16.75;;;;;;;;;;5076801;28;20119;-57
2023/03/03 05:30:26;;;;;;;38.45;17.63;;;;;;;;;;5075760;28;20121;-57
2023/03/03 05:32:52;;;;;;;36.08;17.70;;;;;;;;;;5070133;28;20070;-57
2023/03/03 05:35:19;;;;;;;34.95;18.05;;;;;;;;;;5079994;28;20155;-57
2023/03/03 05:37:46;;;;;;;41.72;18.02;;;;;;;;;;5073175;28;20501;-57
2023/03/03 05:40:13;;;;;;;41.63;19.23;;;;;;;;;;5073913;28;20123;-57
2023/03/03 05:42:40;;;;;;;35.60;15.68;;;;;;;;;;5073185;28;20037;-57
2023/03/03 05:45:06;;;;;;;16.23;10.45;;;;;;;;;;5074328;28;20534;-57
2023/03/03 05:47:33;;;;;;;42.60;18.92;;;;;;;;;;5073846;28;20115;-57
2023/03/03 05:49:59;;;;;;;30.50;13.82;;;;;;;;;;5080223;28;20058;-57
2023/03/03 05:52:25;;;;;;;26.80;13.07;;;;;;;;;;5076954;28;22105;-57
2023/03/03 05:54:51;;;;;;;36.03;15.75;;;;;;;;;;5075842;27;20048;-57
2023/03/03 05:57:18;;;;;;;37.83;18.20;;;;;;;;;;5075427;27;20048;-57
2023/03/03 05:59:44;;;;;;;51.65;22.80;;;;;;;;;;5077526;28;20039;-57
2023/03/03 06:02:10;;;;;;;50.28;23.70;;;;;;;;;;5078042;28;20515;-57
2023/03/03 06:04:36;;;;;;;44.78;18.60;;;;;;;;;;5076719;28;20159;-57
2023/03/03 06:07:02;;;;;;;47.65;22.38;;;;;;;;;;5077860;27;20927;-57
2023/03/03 06:09:28;;;;;;;40.38;18.67;;;;;;;;;;5082918;28;20036;-57
2023/03/03 06:11:54;;;;;;;37.85;17.50;;;;;;;;;;5075339;28;20055;-57
2023/03/03 06:14:23;;;;;;;47.33;21.77;;;;;;;;;;5077054;28;20297;-57
2023/03/03 06:16:49;;;;;;;46.50;20.48;;;;;;;;;;5076686;27;20585;-57
2023/03/03 06:19:15;;;;;;;49.20;22.30;;;;;;;;;;5077607;28;20048;-57
2023/03/03 06:21:41;;;;;;;47.83;22.98;;;;;;;;;;5077844;28;20098;-57
2023/03/03 06:24:07;;;;;;;33.53;16.13;;;;;;;;;;5075037;28;20209;-57
2023/03/03 06:26:34;;;;;;;49.17;20.00;;;;;;;;;;5075504;28;20055;-57
2023/03/03 06:29:00;;;;;;;44.67;19.30;;;;;;;;;;5078520;28;20089;-57
2023/03/03 06:31:27;;;;;;;21.95;11.95;;;;;;;;;;5077247;28;20048;-57
2023/03/03 06:33:53;;;;;;;38.08;15.35;;;;;;;;;;5073553;28;20044;-57
2023/03/03 06:36:19;;;;;;;47.40;19.73;;;;;;;;;;5070890;28;20048;-57
2023/03/03 06:38:46;;;;;;;33.10;14.82;;;;;;;;;;5069273;28;20036;-58
2023/03/03 06:41:12;;;;;;;36.80;18.05;;;;;;;;;;5071293;28;20234;-57
2023/03/03 06:43:38;;;;;;;33.35;15.18;;;;;;;;;;5073064;28;20072;-57
2023/03/03 06:46:05;;;;;;;52.05;22.63;;;;;;;;;;5074404;28;20044;-57
2023/03/03 06:48:32;;;;;;;48.38;23.13;;;;;;;;;;5077041;28;20609;-57
2023/03/03 06:51:02;;;;;;;35.88;16.45;;;;;;;;;;5078345;28;20052;-57
2023/03/03 06:53:28;;;;;;;43.95;18.63;;;;;;;;;;5075180;28;20548;-57
2023/03/03 06:55:56;;;;;;;35.05;18.00;;;;;;;;;;5076940;28;20548;-57
2023/03/03 06:58:28;;;;;;;50.10;21.65;;;;;;;;;;5078557;28;20037;-57
2023/03/03 07:00:58;;;;;;;43.45;19.98;;;;;;;;;;5079000;28;20048;-57
2023/03/03 07:03:27;;;;;;;43.60;18.70;;;;;;;;;;5078250;28;20072;-57
2023/03/03 07:05:53;;;;;;;44.17;20.60;;;;;;;;;;5079805;28;20072;-57
2023/03/03 07:08:21;;;;;;;51.63;21.65;;;;;;;;;;5075693;27;20060;-57
2023/03/03 07:10:47;;;;;;;57.00;24.73;;;;;;;;;;5076268;28;20527;-57
2023/03/03 07:13:19;;;;;;;45.83;22.10;;;;;;;;;;5078041;28;20075;-57
2023/03/03 07:15:45;;;;;;;;;;;;;;;;;;5077808;28;20562;-57
2023/03/03 07:18:32;;;;;;;44.65;20.30;;;;;;;;;;5070175;28;19920;-57
2023/03/03 07:20:59;;;;;;;38.17;19.02;;;;;;;;;;5075125;28;20048;-57
2023/03/03 07:23:27;;;;;;;53.50;25.33;;;;;;;;;;5078963;28;20037;-57
2023/03/03 07:25:53;;;;;;;46.75;21.25;;;;;;;;;;5074681;28;21107;-57
2023/03/03 07:28:19;;;;;;;42.42;21.45;;;;;;;;;;5076670;28;20498;-59
2023/03/03 07:30:45;;;;;;;58.75;22.90;;;;;;;;;;5078803;28;20051;-57
2023/03/03 07:33:20;;;;;;;34.00;15.65;;;;;;;;;;5073774;28;20582;-57
2023/03/03 07:35:46;;;;;;;47.22;19.67;;;;;;;;;;5078710;28;20099;-57
2023/03/03 07:38:31;;;;;;;54.45;23.30;;;;;;;;;;5062499;28;20047;-57
2023/03/03 07:41:02;;;;;;;38.92;16.30;;;;;;;;;;5077299;28;20043;-57
2023/03/03 07:43:39;;;;;;;52.55;23.55;;;;;;;;;;5073824;28;20868;-57
2023/03/03 07:46:24;;;;;;;56.72;22.50;;;;;;;;;;5073152;28;20063;-58
2023/03/03 07:48:50;;;;;;;54.88;22.98;;;;;;;;;;5075679;28;20044;-57
2023/03/03 07:51:35;;;;;;;37.78;18.60;;;;;;;;;;5073151;28;20036;-60
2023/03/03 07:54:19;;;;;;;52.47;24.52;;;;;;;;;;5081102;28;20441;-57
2023/03/03 07:56:46;;;;;;;35.58;15.25;;;;;;;;;;5082508;28;20517;-57
2023/03/03 07:59:22;;;;;;;60.85;25.63;;;;;;;;;;5083559;28;20121;-58
2023/03/03 08:01:51;;;;;;;40.75;18.73;;;;;;;;;;5084814;28;20047;-57
2023/03/03 08:04:20;;;;;;;49.80;22.38;;;;;;;;;;5082904;28;20044;-57
2023/03/03 08:06:50;;;;;;;55.17;23.92;;;;;;;;;;5079667;28;20115;-57
2023/03/03 08:09:19;;;;;;;42.40;18.17;;;;;;;;;;5079964;28;20821;-57
2023/03/03 08:11:54;;;;;;;47.50;24.40;;;;;;;;;;5084349;28;20123;-57
2023/03/03 08:14:31;;;;;;;56.60;23.98;;;;;;;;;;5081717;28;20048;-57
2023/03/03 08:16:57;;;;;;;53.03;24.48;;;;;;;;;;5082557;28;20041;-57
2023/03/03 08:19:24;;;;;;;42.28;21.15;;;;;;;;;;5081156;28;20142;-57
2023/03/03 08:21:50;;;;;;;31.52;16.02;;;;;;;;;;5083321;28;20081;-57
2023/03/03 08:24:16;;;;;;;31.77;16.20;;;;;;;;;;5080714;28;20205;-57
2023/03/03 08:26:43;;;;;;;41.63;19.10;;;;;;;;;;5079729;28;20848;-57
2023/03/03 08:29:10;;;;;;;55.15;26.17;;;;;;;;;;5084203;28;20087;-57
2023/03/03 08:31:37;;;;;;;54.20;24.08;;;;;;;;;;5077988;28;20592;-58
2023/03/03 08:34:03;;;;;;;38.00;20.63;;;;;;;;;;5080243;28;20045;-58
2023/03/03 08:36:30;;;;;;;37.28;18.45;;;;;;;;;;5081384;28;20033;-58
2023/03/03 08:38:56;;;;;;;37.95;21.35;;;;;;;;;;5080433;28;20608;-57
2023/03/03 08:41:22;;;;;;;53.45;26.10;;;;;;;;;;5081252;28;20079;-57
2023/03/03 08:43:48;;;;;;;29.70;15.10;;;;;;;;;;5081554;28;20076;-57
2023/03/03 08:46:15;;;;;;;51.13;22.70;;;;;;;;;;5082408;28;20532;-58
2023/03/03 08:48:41;;;;;;;32.42;18.77;;;;;;;;;;5084126;28;20040;-57
2023/03/03 08:51:07;;;;;;;35.60;20.60;;;;;;;;;;5100159;27;20052;-57
2023/03/03 08:53:35;;;;;;;48.10;21.08;;;;;;;;;;5097966;27;20044;-57
2023/03/03 08:56:01;;;;;;;49.35;25.98;;;;;;;;;;5082349;28;20036;-58
2023/03/03 08:58:27;;;;;;;41.72;21.67;;;;;;;;;;5077686;28;20036;-57
2023/03/03 09:00:53;;;;;;;35.15;15.20;;;;;;;;;;5082447;28;20534;-58
2023/03/03 09:03:20;;;;;;;36.30;18.58;;;;;;;;;;5082838;28;20040;-58
2023/03/03 09:05:46;;;;;;;49.17;23.20;;;;;;;;;;5077430;28;20458;-57
2023/03/03 09:08:12;;;;;;;37.03;19.42;;;;;;;;;;5083899;28;20046;-58
2023/03/03 09:10:38;;;;;;;51.38;25.10;;;;;;;;;;5082414;28;20123;-58
2023/03/03 09:13:07;;;;;;;32.25;16.92;;;;;;;;;;5081364;28;20041;-58
2023/03/03 09:15:34;;;;;;;50.70;21.98;;;;;;;;;;5079360;28;20605;-57
2023/03/03 09:18:21;;;;;;;46.88;23.08;;;;;;;;;;5081795;28;20167;-58
2023/03/03 09:20:53;;;;;;;50.80;25.33;;;;;;;;;;5083318;27;20048;-57
2023/03/03 09:23:19;;;;;;;;;;;;;;;;;;5084402;28;20044;-57
2023/03/03 09:25:45;;;;;;;51.13;22.83;;;;;;;;;;5077397;28;20544;-60
2023/03/03 09:28:20;;;;;;;62.78;27.77;;;;;;;;;;5082942;28;20143;-58
2023/03/03 09:30:49;;;;;;;39.85;21.13;;;;;;;;;;5075922;28;20049;-57
2023/03/03 09:33:24;;;;;;;52.17;24.15;;;;;;;;;;5082002;28;20048;-58
2023/03/03 09:35:52;;;;;;;37.58;18.25;;;;;;;;;;5080275;28;20033;-58
2023/03/03 09:38:24;;;;;;;43.97;23.63;;;;;;;;;;5079980;28;20049;-57
2023/03/03 09:40:52;;;;;;;;;;;;;;;;;;5096786;27;20190;-57
2023/03/03 09:43:22;;;;;;;43.05;19.95;;;;;;;;;;5080758;28;19932;-58
2023/03/03 09:45:52;;;;;;;49.22;24.73;;;;;;;;;;5080983;28;20454;-58
2023/03/03 09:48:31;;;;;;;49.35;23.77;;;;;;;;;;5082557;28;20565;-57
2023/03/03 09:51:15;;;;;;;60.35;29.00;;;;;;;;;;5082861;28;20467;-58
2023/03/03 09:53:47;;;;;;;36.60;19.73;;;;;;;;;;5077763;28;20045;-58
2023/03/03 09:56:13;;;;;;;47.95;23.40;;;;;;;;;;5082143;28;20484;-57
2023/03/03 09:58:45;;;;;;;47.47;25.02;;;;;;;;;;5080467;28;20048;-57
2023/03/03 10:01:19;;;;;;;54.28;24.83;;;;;;;;;;5080003;28;20135;-57
2023/03/03 10:03:54;;;;;;;45.13;22.80;;;;;;;;;;5079912;28;20139;-58
2023/03/03 10:06:36;;;;;;;55.88;27.08;;;;;;;;;;5080255;28;20115;-57
2023/03/03 10:09:11;;;;;;;50.00;24.87;;;;;;;;;;5079930;28;20619;-57
2023/03/03 10:11:43;;;;;;;55.55;26.33;;;;;;;;;;5081229;28;20040;-57
2023/03/03 10:14:17;;;;;;;53.53;28.95;;;;;;;;;;5080225;28;20052;-57
2023/03/03 10:16:57;;;;;;;53.60;24.63;;;;;;;;;;5081080;28;20036;-57
2023/03/03 10:19:33;;;;;;;51.08;26.25;;;;;;;;;;5083390;27;20040;-57
2023/03/03 10:22:19;;;;;;;48.13;22.02;;;;;;;;;;5082659;28;20602;-57
2023/03/03 10:24:54;;;;;;;54.67;24.88;;;;;;;;;;5078601;28;20131;-57
2023/03/03 10:27:32;;;;;;;53.65;25.92;;;;;;;;;;5082074;28;20603;-57
2023/03/03 10:30:04;;;;;;;55.80;29.67;;;;;;;;;;5082319;28;20048;-57
2023/03/03 10:32:30;;;;;;;51.08;27.55;;;;;;;;;;5079647;28;20127;-58
2023/03/03 10:35:02;;;;;;;38.15;19.92;;;;;;;;;;5078395;28;20094;-57
2023/03/03 10:37:47;;;;;;;58.35;30.75;;;;;;;;;;5081412;28;20037;-57
2023/03/03 10:40:27;;;;;;;45.85;25.98;;;;;;;;;;5080555;28;20166;-57
2023/03/03 10:43:08;;;;;;;50.58;26.48;;;;;;;;;;5081018;28;20040;-57
2023/03/03 10:45:53;;;;;;;42.20;20.38;;;;;;;;;;5080089;28;20040;-57
2023/03/03 10:48:25;;;;;;;42.42;23.88;;;;;;;;;;5080290;28;20098;-57
2023/03/03 10:50:51;;;;;;;;;;;;;;;;;;5083737;28;20040;-58
2023/03/03 10:53:26;;;;;;;44.80;25.35;;;;;;;;;;5078046;28;19924;-58
2023/03/03 10:56:13;;;;;;;52.17;28.67;;;;;;;;;;5081430;28;20426;-58
2023/03/03 10:58:41;;;;;;;55.45;23.67;;;;;;;;;;5076017;28;20424;-58
2023/03/03 11:01:14;;;;;;;48.22;25.13;;;;;;;;;;5083437;28;20836;-58
2023/03/03 11:03:40;;;;;;;;;;;;;;;;;;5074611;28;20047;-58
2023/03/03 11:06:09;;;;;;;49.42;25.73;;;;;;;;;;5085458;28;19931;-58
2023/03/03 11:08:35;;;;;;;19.08;10.90;;;;;;;;;;5082155;28;20102;-58
2023/03/03 11:11:10;;;;;;;39.35;19.33;;;;;;;;;;5085056;28;20047;-57
2023/03/03 11:13:36;;;;;;;34.30;15.70;;;;;;;;;;5084699;28;20055;-58
2023/03/03 11:16:12;;;;;;;44.45;22.17;;;;;;;;;;5082971;28;20060;-58
2023/03/03 11:18:51;;;;;;;44.63;19.35;;;;;;;;;;5083310;28;20356;-57
2023/03/03 11:21:20;;;;;;;36.20;18.92;;;;;;;;;;5083426;28;20044;-57
2023/03/03 11:23:46;;;;;;;24.83;13.07;;;;;;;;;;5084444;27;20040;-58
2023/03/03 11:26:32;;;;;;;44.05;22.70;;;;;;;;;;5085720;28;20536;-58
2023/03/03 11:29:02;;;;;;;30.98;16.30;;;;;;;;;;5079693;28;20549;-58
2023/03/03 11:31:52;;;;;;;44.63;20.00;;;;;;;;;;5078630;28;20036;-58
2023/03/03 11:34:36;;;;;;;48.47;25.45;;;;;;;;;;5084960;28;20075;-58
2023/03/03 11:37:15;;;;;;;33.85;17.92;;;;;;;;;;5084253;28;20136;-58
2023/03/03 11:39:42;;;;;;;32.75;16.05;;;;;;;;;;5078765;28;21030;-58
2023/03/03 11:42:27;;;;;;;37.03;17.58;;;;;;;;;;5082447;28;20040;-58
2023/03/03 11:44:55;;;;;;;41.42;18.38;;;;;;;;;;5083730;28;20045;-58
2023/03/03 11:47:24;;;;;;;44.50;21.67;;;;;;;;;;5078347;28;20048;-59
2023/03/03 11:49:55;;;;;;;33.47;17.70;;;;;;;;;;5083905;28;20036;-58
2023/03/03 11:52:44;;;;;;;32.42;16.10;;;;;;;;;;5082915;28;20064;-58
2023/03/03 11:55:37;;;;;;;47.60;21.35;;;;;;;;;;5084732;28;20745;-58
2023/03/03 11:58:09;;;;;;;36.55;18.83;;;;;;;;;;5074457;28;20056;-58
2023/03/03 12:00:35;;;;;;;36.45;19.60;;;;;;;;;;5082567;28;20047;-58
2023/03/03 12:03:09;;;;;;;35.13;17.63;;;;;;;;;;5085494;28;20040;-58
2023/03/03 12:05:47;;;;;;;26.83;12.88;;;;;;;;;;5085960;28;20048;-58
2023/03/03 12:08:36;;;;;;;33.67;15.65;;;;;;;;;;5082016;28;20044;-57
2023/03/03 12:11:05;;;;;;;24.52;12.60;;;;;;;;;;5086093;28;20040;-58
2023/03/03 12:13:37;;;;;;;36.83;17.00;;;;;;;;;;5083865;28;20045;-58
2023/03/03 12:16:03;;;;;;;;;;;;;;;;;;5083584;28;20056;-58
2023/03/03 12:18:53;;;;;;;36.15;16.73;;;;;;;;;;5082145;28;19924;-58
2023/03/03 12:21:41;;;;;;;35.35;17.40;;;;;;;;;;5083350;27;20045;-58
2023/03/03 12:24:26;;;;;;;30.58;11.85;;;;;;;;;;5083872;28;20063;-58
2023/03/03 12:26:59;;;;;;;36.65;18.33;;;;;;;;;;5084672;28;20072;-58
2023/03/03 12:29:49;;;;;;;20.02;12.15;;;;;;;;;;5084840;28;20044;-58
2023/03/03 12:32:35;;;;;;;37.53;19.90;;;;;;;;;;5078877;28;20123;-58
2023/03/03 12:35:09;;;;;;;27.77;13.60;;;;;;;;;;5077203;28;20762;-58
2023/03/03 12:37:40;;;;;;;18.55;9.38;;;;;;;;;;5082696;28;20542;-58
2023/03/03 12:40:13;;;;;;;38.05;18.60;;;;;;;;;;5084578;28;20037;-57
2023/03/03 12:42:59;;;;;;;33.90;17.40;;;;;;;;;;5081734;28;20811;-58
2023/03/03 12:45:25;;;;;;;30.55;15.27;;;;;;;;;;5083630;28;20479;-57
2023/03/03 12:47:58;;;;;;;23.90;11.85;;;;;;;;;;5081340;28;20048;-58
2023/03/03 12:50:30;;;;;;;20.17;10.32;;;;;;;;;;5083688;28;20051;-59
2023/03/03 12:53:02;;;;;;;17.20;8.63;;;;;;;;;;5077159;28;20048;-58
2023/03/03 12:55:47;;;;;;;21.67;13.20;;;;;;;;;;5078349;28;20298;-58
2023/03/03 12:58:19;;;;;;;26.67;13.65;;;;;;;;;;5078804;28;20036;-58
2023/03/03 13:01:05;;;;;;;31.20;16.95;;;;;;;;;;5083326;28;20086;-58
2023/03/03 13:03:44;;;;;;;30.20;14.40;;;;;;;;;;5082205;28;20072;-58
2023/03/03 13:06:27;;;;;;;30.98;16.20;;;;;;;;;;5083307;28;20056;-59
2023/03/03 13:08:59;;;;;;;22.65;12.43;;;;;;;;;;5080879;28;20545;-58
2023/03/03 13:11:27;;;;;;;28.15;14.43;;;;;;;;;;5082525;27;20265;-58
2023/03/03 13:14:07;;;;;;;37.10;16.85;;;;;;;;;;5083365;27;20044;-57
2023/03/03 13:16:37;;;;;;;28.00;11.23;;;;;;;;;;5082524;28;20044;-58
2023/03/03 13:19:06;;;;;;;26.15;12.35;;;;;;;;;;5081032;28;20045;-58
2023/03/03 13:21:50;;;;;;;33.22;16.95;;;;;;;;;;5080533;28;20044;-58
2023/03/03 13:24:44;;;;;;;22.10;12.38;;;;;;;;;;5080855;28;20059;-58
2023/03/03 13:27:12;;;;;;;20.30;11.43;;;;;;;;;;5078003;28;20803;-58
2023/03/03 13:29:44;;;;;;;27.20;11.23;;;;;;;;;;5082811;27;20045;-58
2023/03/03 13:32:18;;;;;;;23.42;12.05;;;;;;;;;;5083641;28;20048;-58
2023/03/03 13:35:03;;;;;;;26.77;13.25;;;;;;;;;;5076367;28;20062;-57
2023/03/03 13:37:32;;;;;;;28.67;15.13;;;;;;;;;;5083008;28;20112;-58
2023/03/03 13:40:07;;;;;;;20.00;11.43;;;;;;;;;;5079179;28;20046;-57
2023/03/03 13:42:39;;;;;;;18.45;9.48;;;;;;;;;;5080901;28;20427;-58
2023/03/03 13:45:31;;;;;;;22.67;12.38;;;;;;;;;;5083599;28;20459;-58
2023/03/03 13:48:03;;;;;;;17.00;9.10;;;;;;;;;;5071881;28;20123;-58
2023/03/03 13:50:44;;;;;;;20.98;9.88;;;;;;;;;;5082183;28;20593;-57
2023/03/03 13:53:13;;;;;;;19.90;9.65;;;;;;;;;;5082933;28;20086;-58
2023/03/03 13:55:53;;;;;;;25.83;11.00;;;;;;;;;;5077389;28;20070;-57
2023/03/03 13:58:22;;;;;;;24.25;13.77;;;;;;;;;;5082917;28;20071;-58
2023/03/03 14:00:48;;;;;;;25.65;11.02;;;;;;;;;;5080064;28;20040;-57
2023/03/03 14:03:20;;;;;;;15.23;6.50;;;;;;;;;;5083229;28;20048;-57
2023/03/03 14:05:50;;;;;;;20.35;9.63;;;;;;;;;;5079146;28;20048;-57
2023/03/03 14:08:49;;;;;;;23.77;11.05;;;;;;;;;;5083854;28;20044;-58
2023/03/03 14:11:21;;;;;;;20.75;10.55;;;;;;;;;;5043842;28;20584;-58
2023/03/03 14:13:47;;;;;;;17.08;7.30;;;;;;;;;;5080663;28;20051;-58
2023/03/03 14:16:21;;;;;;;18.25;9.00;;;;;;;;;;5080079;28;20057;-57
2023/03/03 14:18:50;;;;;;;14.63;7.85;;;;;;;;;;5082604;28;20089;-58
2023/03/03 14:21:28;;;;;;;15.15;7.72;;;;;;;;;;5078544;28;20111;-57
2023/03/03 14:24:07;;;;;;;17.08;9.48;;;;;;;;;;5081959;28;20037;-58
2023/03/03 14:26:45;;;;;;;14.45;4.93;;;;;;;;;;5081482;27;20048;-57
2023/03/03 14:29:20;;;;;;;11.88;6.47;;;;;;;;;;5081032;28;20046;-57
2023/03/03 14:31:46;;;;;;;19.75;7.78;;;;;;;;;;5082404;28;20036;-58
2023/03/03 14:34:37;;;;;;;13.07;7.05;;;;;;;;;;5080276;28;20583;-57
2023/03/03 14:37:21;;;;;;;13.68;7.07;;;;;;;;;;5077599;28;20122;-56
2023/03/03 14:39:50;;;;;;;10.25;5.68;;;;;;;;;;5085002;28;20044;-57